createdAt,value
2022-12-13T00:01:47.951Z,14.38
2022-12-13T00:04:16.461Z,13.65
2022-12-13T00:06:45.025Z,14.90
2022-12-13T00:09:16.778Z,14.50
2022-12-13T00:11:46.031Z,14.38
2022-12-13T00:14:15.038Z,14.93
2022-12-13T00:16:47.079Z,14.65
2022-12-13T00:19:16.810Z,14.40
2022-12-13T00:21:45.404Z,14.63
2022-12-13T00:24:16.101Z,15.70
2022-12-13T00:26:44.343Z,15.27
2022-12-13T00:29:13.045Z,14.75
2022-12-13T00:32:00.425Z,15.07
2022-12-13T00:34:30.131Z,14.63
2022-12-13T00:37:00.161Z,15.57
2022-12-13T00:39:31.455Z,15.40
2022-12-13T00:41:59.673Z,14.82
2022-12-13T00:44:27.925Z,14.45
2022-12-13T00:46:56.557Z,16.33
2022-12-13T00:49:25.200Z,14.07
2022-12-13T00:51:53.471Z,15.43
2022-12-13T00:54:21.726Z,13.00
2022-12-13T00:56:52.395Z,14.90
2022-12-13T00:59:21.369Z,13.20
2022-12-13T01:01:49.859Z,14.00
2022-12-13T01:04:19.858Z,13.55
2022-12-13T01:06:51.424Z,13.70
2022-12-13T01:09:27.183Z,14.00
2022-12-13T01:11:59.930Z,15.68
2022-12-13T01:14:29.300Z,14.80
2022-12-13T01:16:57.865Z,14.65
2022-12-13T01:19:27.590Z,14.13
2022-12-13T01:21:55.937Z,14.52
2022-12-13T01:24:24.842Z,14.07
2022-12-13T01:26:57.001Z,14.52
2022-12-13T01:29:27.829Z,14.33
2022-12-13T01:31:56.052Z,13.93
2022-12-13T01:34:26.603Z,13.80
2022-12-13T01:36:58.271Z,14.48
2022-12-13T01:39:28.227Z,12.88
2022-12-13T01:41:59.856Z,14.20
2022-12-13T01:45:02.930Z,13.65
2022-12-13T01:47:36.259Z,14.32
2022-12-13T01:50:09.845Z,13.10
2022-12-13T01:52:38.738Z,13.75
2022-12-13T01:55:09.333Z,13.40
2022-12-13T01:57:45.434Z,14.00
2022-12-13T02:00:17.446Z,13.75
2022-12-13T02:02:46.785Z,14.18
2022-12-13T02:05:22.445Z,13.73
2022-12-13T02:07:51.686Z,14.70
2022-12-13T02:10:20.221Z,13.18
2022-12-13T02:12:48.512Z,13.77
2022-12-13T02:15:19.982Z,13.00
2022-12-13T02:18:18.246Z,14.27
2022-12-13T02:21:17.605Z,14.57
2022-12-13T02:24:34.361Z,13.80
2022-12-13T02:27:10.541Z,14.45
2022-12-13T02:30:16.936Z,13.30
2022-12-13T02:33:07.718Z,16.33
2022-12-13T02:35:43.504Z,14.25
2022-12-13T02:38:21.468Z,14.13
2022-12-13T02:41:00.779Z,15.13
2022-12-13T02:43:33.726Z,13.10
2022-12-13T02:46:05.189Z,14.10
2022-12-13T02:48:39.194Z,14.15
2022-12-13T02:51:10.261Z,13.68
2022-12-13T02:53:41.165Z,14.07
2022-12-13T02:56:09.428Z,12.60
2022-12-13T02:58:41.830Z,14.50
2022-12-13T03:01:32.346Z,13.52
2022-12-13T03:04:20.053Z,12.93
2022-12-13T03:06:57.337Z,13.10
2022-12-13T03:09:49.444Z,13.05
2022-12-13T03:12:45.061Z,11.52
2022-12-13T03:15:19.957Z,11.50
2022-12-13T03:17:53.770Z,11.98
2022-12-13T03:20:27.915Z,12.82
2022-12-13T03:22:57.233Z,12.38
2022-12-13T03:25:32.795Z,12.43
2022-12-13T03:28:02.483Z,11.85
2022-12-13T03:30:31.892Z,11.40
2022-12-13T03:33:00.183Z,11.88
2022-12-13T03:35:34.945Z,11.23
2022-12-13T03:38:22.843Z,11.57
2022-12-13T03:40:54.813Z,12.27
2022-12-13T03:43:23.827Z,11.97
2022-12-13T03:45:52.963Z,11.50
2022-12-13T03:48:22.183Z,12.50
2022-12-13T03:50:54.372Z,11.55
2022-12-13T03:53:33.035Z,12.07
2022-12-13T03:56:07.186Z,13.13
2022-12-13T03:58:38.126Z,12.73
2022-12-13T04:01:08.141Z,12.57
2022-12-13T04:03:37.049Z,11.55
2022-12-13T04:06:07.403Z,11.38
2022-12-13T04:08:36.276Z,11.40
2022-12-13T04:11:25.846Z,11.82
2022-12-13T04:13:53.879Z,12.40
2022-12-13T04:16:23.335Z,12.10
2022-12-13T04:18:51.902Z,12.98
2022-12-13T04:21:21.523Z,12.30
2022-12-13T04:23:49.788Z,12.25
2022-12-13T04:26:17.982Z,12.48
2022-12-13T04:28:50.898Z,12.73
2022-12-13T04:31:22.487Z,13.13
2022-12-13T04:33:50.714Z,13.85
2022-12-13T04:36:31.414Z,12.90
2022-12-13T04:39:22.070Z,13.02
2022-12-13T04:41:52.836Z,13.63
2022-12-13T04:44:27.846Z,13.98
2022-12-13T04:47:01.084Z,14.05
2022-12-13T04:49:30.162Z,14.13
2022-12-13T04:52:01.401Z,13.00
2022-12-13T04:54:36.467Z,14.50
2022-12-13T04:57:07.674Z,13.45
2022-12-13T04:59:35.976Z,13.57
2022-12-13T05:02:05.776Z,13.23
2022-12-13T05:04:34.413Z,13.10
2022-12-13T05:07:02.944Z,13.68
2022-12-13T05:09:32.789Z,14.52
2022-12-13T05:12:02.041Z,13.90
2022-12-13T05:14:31.025Z,14.48
2022-12-13T05:16:59.251Z,14.52
2022-12-13T05:19:31.209Z,14.10
2022-12-13T05:22:01.476Z,14.80
2022-12-13T05:24:32.771Z,13.63
2022-12-13T05:27:01.151Z,14.20
2022-12-13T05:29:29.834Z,13.93
2022-12-13T05:31:58.251Z,13.30
2022-12-13T05:34:27.103Z,14.10
2022-12-13T05:36:55.358Z,13.85
2022-12-13T05:39:29.021Z,13.40
2022-12-13T05:42:01.379Z,13.40
2022-12-13T05:44:31.717Z,12.10
2022-12-13T05:47:02.188Z,12.50
2022-12-13T05:49:32.198Z,13.80
2022-12-13T05:52:00.637Z,13.05
2022-12-13T05:54:28.959Z,13.35
2022-12-13T05:56:58.898Z,12.93
2022-12-13T05:59:27.125Z,12.52
2022-12-13T06:01:55.411Z,12.70
2022-12-13T06:04:24.504Z,12.73
2022-12-13T06:06:53.251Z,13.82
2022-12-13T06:09:22.062Z,13.15
2022-12-13T06:11:50.935Z,13.65
2022-12-13T06:14:22.469Z,14.10
2022-12-13T06:16:53.042Z,13.25
2022-12-13T06:19:21.831Z,13.75
2022-12-13T06:21:50.365Z,12.43
2022-12-13T06:24:20.827Z,12.80
2022-12-13T06:26:49.902Z,12.02
2022-12-13T06:29:23.130Z,11.70
2022-12-13T06:32:01.685Z,11.55
2022-12-13T06:34:33.354Z,12.55
2022-12-13T06:37:03.147Z,11.75
2022-12-13T06:39:32.532Z,11.57
2022-12-13T06:42:03.088Z,11.57
2022-12-13T06:44:32.757Z,10.75
2022-12-13T06:47:11.791Z,11.70
2022-12-13T06:49:41.589Z,12.20
2022-12-13T06:52:11.728Z,12.88
2022-12-13T06:54:40.186Z,11.85
2022-12-13T06:57:08.660Z,12.18
2022-12-13T06:59:38.324Z,11.93
2022-12-13T07:02:07.073Z,11.95
2022-12-13T07:04:54.926Z,12.27
2022-12-13T07:07:23.776Z,12.10
2022-12-13T07:09:52.272Z,12.95
2022-12-13T07:12:21.040Z,12.98
2022-12-13T07:14:50.791Z,13.23
2022-12-13T07:17:33.943Z,11.90
2022-12-13T07:20:07.991Z,12.90
2022-12-13T07:22:42.996Z,12.23
2022-12-13T07:25:27.150Z,12.53
2022-12-13T07:28:01.243Z,14.85
2022-12-13T07:30:33.398Z,13.20
2022-12-13T07:33:02.754Z,14.10
2022-12-13T07:35:31.141Z,12.52
2022-12-13T07:38:06.968Z,22.42
2022-12-13T07:40:35.413Z,19.95
2022-12-13T07:43:03.794Z,14.15
2022-12-13T07:45:33.883Z,16.58
2022-12-13T07:48:05.815Z,13.40
2022-12-13T07:50:37.165Z,14.35
2022-12-13T07:53:07.212Z,14.10
2022-12-13T07:55:36.676Z,16.70
2022-12-13T07:58:09.798Z,20.60
2022-12-13T08:00:46.038Z,15.70
2022-12-13T08:03:25.517Z,19.70
2022-12-13T08:06:00.898Z,19.00
2022-12-13T08:08:31.356Z,16.05
2022-12-13T08:11:03.943Z,16.17
2022-12-13T08:13:32.258Z,15.40
2022-12-13T08:16:02.798Z,15.63
2022-12-13T08:18:32.693Z,14.57
2022-12-13T08:21:01.340Z,18.42
2022-12-13T08:23:30.961Z,19.27
2022-12-13T08:25:59.733Z,29.48
2022-12-13T08:28:28.405Z,29.75
2022-12-13T08:30:57.454Z,36.60
2022-12-13T08:33:27.124Z,28.20
2022-12-13T08:35:55.248Z,18.30
2022-12-13T08:38:23.874Z,16.65
2022-12-13T08:40:52.429Z,17.40
2022-12-13T08:43:24.841Z,17.50
2022-12-13T08:45:53.551Z,17.80
2022-12-13T08:48:31.565Z,18.00
2022-12-13T08:51:02.784Z,19.85
2022-12-13T08:53:35.222Z,18.52
2022-12-13T08:56:12.480Z,15.48
2022-12-13T08:58:41.222Z,15.77
2022-12-13T09:01:10.724Z,14.82
2022-12-13T09:03:40.419Z,32.03
2022-12-13T09:06:10.487Z,24.38
2022-12-13T09:08:39.158Z,19.17
2022-12-13T09:11:11.161Z,18.55
2022-12-13T09:13:51.269Z,17.90
2022-12-13T09:16:24.517Z,16.63
2022-12-13T09:18:56.086Z,14.50
2022-12-13T09:21:30.989Z,13.93
2022-12-13T09:24:01.804Z,14.88
2022-12-13T09:26:37.536Z,15.27
2022-12-13T09:29:10.898Z,16.90
2022-12-13T09:31:40.514Z,17.20
2022-12-13T09:34:10.783Z,15.03
2022-12-13T09:36:39.134Z,13.60
2022-12-13T09:39:07.512Z,14.32
2022-12-13T09:41:40.558Z,12.23
2022-12-13T09:44:32.925Z,12.73
2022-12-13T09:47:14.038Z,12.45
2022-12-13T09:49:52.295Z,12.35
2022-12-13T09:52:24.687Z,12.80
2022-12-13T09:54:55.524Z,13.57
2022-12-13T09:57:32.947Z,18.87
2022-12-13T10:00:04.626Z,17.85
2022-12-13T10:02:44.304Z,14.23
2022-12-13T10:05:37.221Z,15.32
2022-12-13T10:08:10.052Z,13.90
2022-12-13T10:10:38.694Z,12.43
2022-12-13T10:13:16.177Z,14.70
2022-12-13T10:15:49.930Z,13.07
2022-12-13T10:18:26.225Z,13.13
2022-12-13T10:20:57.024Z,12.75
2022-12-13T10:23:53.122Z,12.70
2022-12-13T10:26:23.802Z,22.15
2022-12-13T10:29:03.241Z,13.20
2022-12-13T10:31:38.712Z,11.90
2022-12-13T10:34:07.087Z,15.40
2022-12-13T10:36:38.480Z,14.32
2022-12-13T10:39:06.839Z,14.40
2022-12-13T10:41:37.338Z,13.70
2022-12-13T10:44:17.336Z,13.52
2022-12-13T10:46:51.508Z,18.80
2022-12-13T10:49:23.178Z,24.38
2022-12-13T10:51:54.517Z,29.15
2022-12-13T10:54:28.735Z,24.67
2022-12-13T10:57:11.848Z,11.93
2022-12-13T10:59:40.983Z,13.35
2022-12-13T11:02:31.409Z,12.07
2022-12-13T11:05:02.113Z,12.90
2022-12-13T11:07:34.655Z,14.65
2022-12-13T11:10:27.065Z,14.18
2022-12-13T11:13:03.712Z,13.68
2022-12-13T11:15:35.110Z,11.82
2022-12-13T11:18:05.728Z,12.27
2022-12-13T11:20:37.021Z,12.33
2022-12-13T11:23:08.699Z,11.93
2022-12-13T11:25:41.844Z,11.48
2022-12-13T11:28:37.671Z,11.10
2022-12-13T11:31:16.573Z,11.48
2022-12-13T11:33:56.799Z,10.68
2022-12-13T11:36:33.752Z,10.90
2022-12-13T11:39:16.843Z,11.68
2022-12-13T11:41:55.296Z,11.10
2022-12-13T11:44:36.607Z,13.20
2022-12-13T11:47:08.255Z,16.58
2022-12-13T11:49:40.893Z,10.27
2022-12-13T11:52:17.643Z,10.00
2022-12-13T11:54:53.839Z,11.68
2022-12-13T11:57:34.358Z,10.93
2022-12-13T12:00:13.247Z,10.40
2022-12-13T12:02:49.951Z,10.68
2022-12-13T12:05:28.328Z,9.93
2022-12-13T12:11:02.084Z,13.40
2022-12-13T12:13:50.972Z,10.63
2022-12-13T12:16:30.061Z,9.80
2022-12-13T12:19:01.899Z,9.10
2022-12-13T12:24:35.993Z,10.05
2022-12-13T12:27:23.852Z,9.73
2022-12-13T12:30:23.516Z,8.85
2022-12-13T12:33:01.912Z,10.13
2022-12-13T12:36:08.039Z,8.98
2022-12-13T12:39:02.536Z,9.52
2022-12-13T12:41:45.120Z,10.93
2022-12-13T12:44:31.140Z,10.15
2022-12-13T12:50:23.849Z,10.90
2022-12-13T12:53:01.110Z,9.75
2022-12-13T12:55:49.271Z,8.98
2022-12-13T12:58:28.024Z,8.85
2022-12-13T13:01:12.993Z,8.85
2022-12-13T13:03:44.079Z,8.93
2022-12-13T13:06:18.554Z,8.57
2022-12-13T13:08:55.638Z,8.80
2022-12-13T13:11:26.268Z,19.25
2022-12-13T13:14:08.240Z,10.53
2022-12-13T13:16:40.337Z,9.48
2022-12-13T13:19:42.654Z,9.00
2022-12-13T13:22:31.450Z,9.15
2022-12-13T13:25:23.190Z,9.25
2022-12-13T13:27:52.780Z,8.80
2022-12-13T13:30:23.045Z,8.60
2022-12-13T13:32:54.195Z,8.45
2022-12-13T13:35:53.745Z,9.10
2022-12-13T13:39:01.537Z,8.68
2022-12-13T13:41:56.367Z,8.98
2022-12-13T13:44:56.629Z,9.48
2022-12-13T13:47:45.473Z,8.70
2022-12-13T13:51:04.797Z,8.13
2022-12-13T13:54:03.869Z,9.00
2022-12-13T13:57:07.985Z,9.10
2022-12-13T14:00:21.870Z,10.35
2022-12-13T14:03:44.376Z,8.23
2022-12-13T14:06:44.350Z,8.88
2022-12-13T14:09:44.506Z,8.75
2022-12-13T14:12:46.149Z,9.85
2022-12-13T14:16:00.385Z,9.30
2022-12-13T14:19:16.758Z,9.20
2022-12-13T14:22:14.527Z,8.65
2022-12-13T14:24:55.059Z,8.90
2022-12-13T14:27:42.309Z,8.95
2022-12-13T14:30:27.116Z,9.10
2022-12-13T14:32:57.450Z,8.33
2022-12-13T14:35:28.016Z,8.50
2022-12-13T14:38:02.166Z,8.73
2022-12-13T14:40:34.781Z,8.18
2022-12-13T14:43:03.753Z,8.23
2022-12-13T14:45:34.451Z,8.32
2022-12-13T14:48:06.522Z,10.32
2022-12-13T14:50:36.583Z,9.57
2022-12-13T14:53:06.860Z,9.80
2022-12-13T14:55:37.878Z,10.38
2022-12-13T14:58:17.747Z,9.80
2022-12-13T15:00:46.836Z,10.10
2022-12-13T15:03:24.185Z,10.02
2022-12-13T15:05:56.018Z,9.75
2022-12-13T15:08:25.051Z,9.70
2022-12-13T15:10:57.231Z,10.88
2022-12-13T15:13:34.309Z,11.70
2022-12-13T15:16:10.808Z,12.57
2022-12-13T15:18:42.450Z,10.77
2022-12-13T15:21:23.626Z,10.70
2022-12-13T15:24:00.350Z,22.50
2022-12-13T15:26:36.783Z,15.13
2022-12-13T15:29:09.642Z,11.40
2022-12-13T15:31:40.392Z,12.30
2022-12-13T15:34:36.277Z,21.88
2022-12-13T15:37:07.777Z,26.05
2022-12-13T15:40:00.443Z,22.65
2022-12-13T15:42:33.313Z,18.60
2022-12-13T15:45:03.856Z,23.08
2022-12-13T15:47:33.215Z,13.23
2022-12-13T15:50:03.645Z,16.05
2022-12-13T15:52:35.550Z,13.40
2022-12-13T15:55:19.966Z,15.95
2022-12-13T15:57:59.356Z,13.02
2022-12-13T16:00:31.737Z,13.82
2022-12-13T16:03:08.824Z,14.50
2022-12-13T16:05:41.682Z,18.35
2022-12-13T16:08:26.033Z,19.10
2022-12-13T16:10:54.948Z,20.92
2022-12-13T16:13:27.881Z,21.80
2022-12-13T16:15:59.741Z,19.58
2022-12-13T16:18:45.870Z,17.85
2022-12-13T16:21:15.286Z,15.93
2022-12-13T16:23:48.818Z,16.55
2022-12-13T16:26:23.544Z,17.90
2022-12-13T16:28:53.290Z,13.50
2022-12-13T16:31:23.872Z,20.33
2022-12-13T16:33:52.694Z,29.65
2022-12-13T16:36:21.339Z,28.08
2022-12-13T16:38:51.380Z,15.65
2022-12-13T16:41:21.991Z,19.08
2022-12-13T16:43:56.220Z,15.65
2022-12-13T16:47:16.657Z,14.70
2022-12-13T16:49:21.308Z,14.13
2022-12-13T16:51:50.316Z,13.40
2022-12-13T16:54:19.409Z,11.60
2022-12-13T16:56:47.749Z,11.32
2022-12-13T16:59:19.006Z,10.82
2022-12-13T17:01:47.753Z,11.82
2022-12-13T17:04:21.118Z,10.57
2022-12-13T17:06:51.011Z,10.88
2022-12-13T17:09:24.438Z,11.50
2022-12-13T17:11:52.702Z,10.85
2022-12-13T17:14:22.337Z,10.73
2022-12-13T17:16:51.315Z,11.50
2022-12-13T17:19:19.754Z,12.00
2022-12-13T17:21:49.374Z,9.50
2022-12-13T17:24:17.598Z,10.15
2022-12-13T17:26:54.727Z,10.95
2022-12-13T17:29:25.770Z,10.02
2022-12-13T17:31:54.518Z,10.52
2022-12-13T17:34:22.908Z,10.77
2022-12-13T17:36:51.158Z,11.02
2022-12-13T17:39:19.633Z,11.40
2022-12-13T17:41:55.186Z,10.75
2022-12-13T17:44:26.006Z,11.50
2022-12-13T17:46:55.709Z,11.27
2022-12-13T17:49:24.729Z,12.63
2022-12-13T17:51:54.249Z,11.45
2022-12-13T17:54:23.528Z,14.70
2022-12-13T17:56:52.539Z,12.18
2022-12-13T17:59:21.414Z,14.50
2022-12-13T18:01:51.678Z,12.93
2022-12-13T18:04:21.026Z,14.55
2022-12-13T18:06:49.392Z,15.20
2022-12-13T18:09:17.737Z,13.98
2022-12-13T18:11:45.983Z,13.05
2022-12-13T18:14:14.314Z,12.00
2022-12-13T18:16:43.730Z,10.87
2022-12-13T18:19:14.931Z,11.55
2022-12-13T18:21:44.314Z,11.20
2022-12-13T18:24:13.188Z,13.38
2022-12-13T18:26:41.508Z,11.85
2022-12-13T18:29:10.194Z,12.13
2022-12-13T18:31:38.524Z,12.90
2022-12-13T18:34:07.593Z,13.25
2022-12-13T18:36:37.586Z,12.05
2022-12-13T18:39:06.469Z,13.80
2022-12-13T18:41:35.257Z,14.05
2022-12-13T18:44:05.441Z,15.40
2022-12-13T18:46:36.343Z,15.25
2022-12-13T18:49:05.227Z,13.03
2022-12-13T18:51:33.973Z,13.43
2022-12-13T18:54:05.052Z,14.50
2022-12-13T18:56:33.366Z,13.68
2022-12-13T18:59:01.691Z,15.02
2022-12-13T19:01:30.634Z,14.88
2022-12-13T19:03:59.147Z,14.27
2022-12-13T19:06:28.993Z,15.00
2022-12-13T19:08:58.538Z,13.10
2022-12-13T19:11:29.903Z,13.30
2022-12-13T19:13:58.637Z,13.73
2022-12-13T19:16:27.298Z,14.68
2022-12-13T19:18:55.890Z,18.20
2022-12-13T19:21:24.522Z,16.90
2022-12-13T19:23:57.724Z,19.83
2022-12-13T19:26:28.780Z,15.88
2022-12-13T19:28:58.746Z,15.80
2022-12-13T19:31:31.570Z,21.33
2022-12-13T19:34:04.762Z,30.30
2022-12-13T19:36:33.914Z,20.50
2022-12-13T19:39:02.227Z,24.70
2022-12-13T19:41:33.504Z,16.45
2022-12-13T19:44:04.601Z,19.27
2022-12-13T19:46:33.262Z,16.75
2022-12-13T19:49:02.020Z,15.20
2022-12-13T19:51:34.437Z,13.03
2022-12-13T19:54:06.076Z,13.50
2022-12-13T19:56:35.744Z,14.18
2022-12-13T19:59:04.022Z,21.40
2022-12-13T20:01:32.338Z,14.52
2022-12-13T20:04:01.716Z,12.98
2022-12-13T20:06:30.749Z,15.20
2022-12-13T20:08:58.985Z,13.52
2022-12-13T20:11:27.184Z,15.10
2022-12-13T20:13:57.211Z,16.42
2022-12-13T20:16:27.034Z,14.40
2022-12-13T20:18:57.067Z,15.48
2022-12-13T20:21:26.029Z,13.60
2022-12-13T20:23:54.818Z,13.77
2022-12-13T20:26:25.041Z,13.30
2022-12-13T20:28:53.486Z,12.20
2022-12-13T20:31:25.421Z,13.67
2022-12-13T20:33:56.886Z,13.50
2022-12-13T20:36:27.563Z,14.20
2022-12-13T20:38:57.601Z,14.80
2022-12-13T20:41:27.169Z,12.95
2022-12-13T20:43:57.500Z,13.77
2022-12-13T20:46:28.368Z,13.35
2022-12-13T20:48:57.978Z,17.20
2022-12-13T20:51:29.421Z,15.95
2022-12-13T20:53:58.052Z,16.80
2022-12-13T20:56:28.633Z,16.00
2022-12-13T20:58:58.260Z,12.88
2022-12-13T21:01:30.446Z,13.48
2022-12-13T21:04:01.169Z,11.00
2022-12-13T21:06:30.577Z,11.90
2022-12-13T21:09:02.527Z,10.45
2022-12-13T21:11:32.949Z,10.47
2022-12-13T21:14:08.228Z,9.40
2022-12-13T21:16:42.389Z,11.07
2022-12-13T21:19:14.228Z,10.25
2022-12-13T21:21:42.629Z,11.60
2022-12-13T21:24:13.695Z,10.40
2022-12-13T21:26:42.039Z,10.35
2022-12-13T21:29:12.608Z,10.25
2022-12-13T21:31:48.511Z,8.82
2022-12-13T21:34:17.863Z,8.82
2022-12-13T21:36:48.268Z,10.05
2022-12-13T21:39:19.218Z,9.98
2022-12-13T21:41:47.441Z,10.50
2022-12-13T21:44:16.683Z,8.75
2022-12-13T21:49:34.969Z,9.00
2022-12-13T21:52:03.111Z,9.77
2022-12-13T21:54:31.247Z,11.40
2022-12-13T21:57:16.708Z,10.30
2022-12-13T21:59:45.056Z,8.95
2022-12-13T22:02:16.806Z,9.63
2022-12-13T22:04:46.484Z,9.07
2022-12-13T22:07:16.490Z,9.35
2022-12-13T22:09:45.942Z,8.63
2022-12-13T22:12:21.196Z,8.38
2022-12-13T22:14:50.282Z,8.45
2022-12-13T22:17:31.041Z,6.80
2022-12-13T22:20:02.098Z,7.28
2022-12-13T22:22:30.519Z,7.90
2022-12-13T22:24:58.907Z,7.93
2022-12-13T22:27:28.152Z,8.07
2022-12-13T22:29:58.042Z,7.72
2022-12-13T22:32:29.262Z,7.60
2022-12-13T22:34:57.729Z,8.15
2022-12-13T22:37:26.457Z,8.98
2022-12-13T22:39:56.433Z,8.00
2022-12-13T22:42:24.683Z,7.75
2022-12-13T22:44:52.885Z,8.30
2022-12-13T22:47:21.199Z,8.60
2022-12-13T22:49:50.804Z,8.00
2022-12-13T22:52:19.191Z,7.90
2022-12-13T22:54:47.594Z,7.33
2022-12-13T22:57:15.945Z,8.45
2022-12-13T22:59:44.800Z,8.50
2022-12-13T23:02:13.192Z,8.30
2022-12-13T23:04:41.461Z,8.38
2022-12-13T23:07:10.964Z,7.68
2022-12-13T23:09:39.196Z,8.00
2022-12-13T23:12:25.083Z,8.80
2022-12-13T23:14:53.340Z,8.20
2022-12-13T23:17:21.553Z,8.20
2022-12-13T23:19:53.313Z,7.80
2022-12-13T23:22:25.064Z,8.07
2022-12-13T23:24:54.140Z,8.70
2022-12-13T23:27:23.844Z,8.10
2022-12-13T23:29:52.082Z,7.50
2022-12-13T23:32:20.451Z,7.25
2022-12-13T23:34:48.647Z,7.37
2022-12-13T23:37:16.933Z,7.40
2022-12-13T23:39:46.510Z,7.35
2022-12-13T23:42:14.746Z,7.90
2022-12-13T23:44:43.402Z,7.82
2022-12-13T23:47:11.646Z,7.75
2022-12-13T23:49:39.809Z,8.68
2022-12-13T23:52:08.002Z,7.73
2022-12-13T23:54:36.281Z,7.47
2022-12-13T23:57:06.220Z,8.77
2022-12-13T23:59:34.539Z,8.60
